Time;durP1;ratioP1;P1;durP2;ratioP2;P2;SDS_P1;SDS_P2;PMS_P1;PMS_P2;Temp;Humidity;BMP_temperature;BMP_pressure;BME280_temperature;BME280_humidity;BME280_pressure;Samples;Min_cycle;Max_cycle;Signal;HPM_P1;HPM_P2
2022/04/14 00:01:22;;;;;;;8.35;4.30;;;13.40;65.40;;;;;;4890140;29;20480;-87
2022/04/14 00:03:47;;;;;;;4.55;3.75;;;13.40;65.60;;;;;;4908665;29;20031;-87
2022/04/14 00:06:13;;;;;;;5.85;3.80;;;13.40;65.70;;;;;;4905828;29;20076;-87
2022/04/14 00:08:39;;;;;;;6.35;3.42;;;13.40;65.80;;;;;;4919309;29;20461;-87
2022/04/14 00:11:04;;;;;;;9.70;3.72;;;13.30;65.90;;;;;;4922753;29;20032;-89
2022/04/14 00:13:30;;;;;;;4.90;3.55;;;13.30;66.10;;;;;;4931749;29;20087;-87
2022/04/14 00:15:56;;;;;;;7.07;3.50;;;13.20;66.40;;;;;;4896346;29;20449;-86
2022/04/14 00:18:21;;;;;;;8.25;4.03;;;13.20;66.60;;;;;;4906828;29;20029;-87
2022/04/14 00:20:47;;;;;;;8.85;3.50;;;13.20;66.70;;;;;;4904671;29;20520;-90
2022/04/14 00:23:13;;;;;;;6.78;3.88;;;13.10;66.60;;;;;;4912991;29;20040;-88
2022/04/14 00:25:38;;;;;;;5.63;3.72;;;13.10;66.70;;;;;;4904842;29;20032;-87
2022/04/14 00:28:04;;;;;;;6.70;3.78;;;13.10;66.80;;;;;;4903360;29;20028;-87
2022/04/14 00:30:29;;;;;;;6.25;3.53;;;13.00;67.00;;;;;;4926332;29;20036;-87
2022/04/14 00:32:55;;;;;;;6.85;3.72;;;13.00;67.10;;;;;;4891992;29;20421;-88
2022/04/14 00:35:21;;;;;;;8.73;3.88;;;13.00;67.20;;;;;;4887665;29;20038;-87
2022/04/14 00:37:46;;;;;;;7.20;3.92;;;13.00;67.30;;;;;;4901642;29;20166;-87
2022/04/14 00:40:13;;;;;;;14.38;4.30;;;13.00;67.40;;;;;;4912294;29;20051;-87
2022/04/14 00:42:38;;;;;;;5.80;4.07;;;12.90;67.60;;;;;;4917720;29;20031;-87
2022/04/14 00:45:06;;;;;;;4.85;3.70;;;12.90;67.80;;;;;;4898917;29;20028;-87
2022/04/14 00:47:34;;;;;;;6.35;3.90;;;12.90;68.00;;;;;;4902390;29;20515;-87
2022/04/14 00:50:00;;;;;;;6.93;3.50;;;12.90;68.00;;;;;;4902844;29;20039;-90
2022/04/14 00:52:26;;;;;;;7.20;3.45;;;12.80;68.00;;;;;;4902518;29;20485;-88
2022/04/14 00:54:51;;;;;;;7.18;4.35;;;12.70;68.20;;;;;;4897588;29;20128;-89
2022/04/14 00:57:17;;;;;;;6.65;4.13;;;12.60;68.20;;;;;;4895187;29;20048;-87
2022/04/14 00:59:43;;;;;;;6.38;4.20;;;12.60;68.40;;;;;;4905375;29;20028;-87
2022/04/14 01:02:09;;;;;;;7.22;4.40;;;12.50;68.60;;;;;;4896179;29;20146;-87
2022/04/14 01:04:36;;;;;;;8.48;4.22;;;12.40;68.70;;;;;;4921071;29;20056;-87
2022/04/14 01:07:05;;;;;;;8.05;4.30;;;12.40;69.00;;;;;;4912329;29;20058;-87
2022/04/14 01:09:31;;;;;;;8.98;4.43;;;12.30;69.30;;;;;;4926441;29;20042;-88
2022/04/14 01:11:56;;;;;;;5.78;4.15;;;12.30;69.60;;;;;;4895714;29;20028;-87
2022/04/14 01:14:34;;;;;;;5.53;4.18;;;12.30;69.70;;;;;;4933587;29;20484;-87
2022/04/14 01:17:03;;;;;;;11.02;4.05;;;12.20;69.90;;;;;;4898562;29;20016;-87
2022/04/14 01:19:41;;;;;;;9.85;4.50;;;12.20;69.80;;;;;;4928041;29;20080;-87
2022/04/14 01:22:11;;;;;;;5.10;3.95;;;12.20;70.40;;;;;;4951242;29;20047;-88
2022/04/14 01:24:38;;;;;;;7.40;4.35;;;12.10;70.40;;;;;;4923628;29;20047;-90
2022/04/14 01:27:04;;;;;;;7.35;4.78;;;12.10;70.60;;;;;;4933992;29;20047;-87
2022/04/14 01:29:30;;;;;;;9.15;4.53;;;12.10;70.90;;;;;;4923074;29;20051;-87
2022/04/14 01:31:57;;;;;;;8.00;4.47;;;12.10;71.10;;;;;;4917503;29;20044;-87
2022/04/14 01:34:23;;;;;;;5.80;4.60;;;12.10;71.30;;;;;;4918531;29;20035;-87
2022/04/14 01:36:49;;;;;;;9.63;4.53;;;12.10;71.40;;;;;;4900260;29;20036;-86
2022/04/14 01:39:15;;;;;;;8.88;4.90;;;12.00;71.50;;;;;;4923725;29;20103;-88
2022/04/14 01:41:44;;;;;;;10.57;4.35;;;12.00;71.70;;;;;;4936374;29;20032;-86
2022/04/14 01:44:10;;;;;;;7.88;4.18;;;12.00;72.10;;;;;;4896543;29;20024;-87
2022/04/14 01:46:37;;;;;;;7.60;4.07;;;12.00;72.30;;;;;;4906341;29;20035;-87
2022/04/14 01:49:04;;;;;;;5.47;4.07;;;12.00;72.50;;;;;;4900267;29;20035;-87
2022/04/14 01:51:30;;;;;;;7.95;4.45;;;12.00;72.90;;;;;;4899218;29;20021;-87
2022/04/14 01:53:56;;;;;;;6.70;4.20;;;11.90;73.10;;;;;;4909547;29;20042;-87
2022/04/14 01:56:22;;;;;;;7.07;4.30;;;11.90;73.30;;;;;;4895985;29;20111;-86
2022/04/14 01:58:49;;;;;;;7.53;3.97;;;11.90;73.40;;;;;;4918152;29;20490;-87
2022/04/14 02:01:15;;;;;;;7.90;4.47;;;11.90;73.60;;;;;;4909558;29;20469;-87
2022/04/14 02:03:40;;;;;;;7.40;4.53;;;11.90;73.80;;;;;;4901101;29;20047;-86
2022/04/14 02:06:06;;;;;;;5.75;4.28;;;11.90;74.00;;;;;;4899587;29;20036;-86
2022/04/14 02:08:32;;;;;;;7.15;4.50;;;11.90;74.10;;;;;;4925507;29;20050;-87
2022/04/14 02:10:57;;;;;;;6.22;3.88;;;11.80;74.30;;;;;;4907247;29;20429;-87
2022/04/14 02:13:23;;;;;;;7.78;4.30;;;11.80;74.40;;;;;;4911404;29;20032;-86
2022/04/14 02:15:49;;;;;;;10.38;4.38;;;11.80;74.70;;;;;;4905949;29;20028;-87
2022/04/14 02:18:14;;;;;;;9.85;5.13;;;11.70;74.90;;;;;;4887094;29;20123;-87
2022/04/14 02:20:40;;;;;;;5.88;4.32;;;11.70;74.90;;;;;;4883565;29;20095;-87
2022/04/14 02:23:05;;;;;;;6.97;4.45;;;11.70;75.10;;;;;;4906652;29;20032;-86
2022/04/14 02:25:31;;;;;;;6.38;4.32;;;11.60;75.30;;;;;;4898624;29;20024;-86
2022/04/14 02:27:56;;;;;;;6.75;4.45;;;11.60;75.40;;;;;;4891539;29;20028;-87
2022/04/14 02:30:23;;;;;;;6.07;4.63;;;11.60;75.40;;;;;;4906258;29;20064;-87
2022/04/14 02:32:49;;;;;;;6.05;4.22;;;11.50;75.50;;;;;;4909501;29;20032;-86
2022/04/14 02:35:15;;;;;;;7.35;4.88;;;11.50;75.80;;;;;;4906921;29;20035;-87
2022/04/14 02:37:40;;;;;;;6.68;4.35;;;11.40;75.80;;;;;;4944724;29;20023;-87
2022/04/14 02:40:07;;;;;;;7.03;4.55;;;11.40;76.10;;;;;;4890739;29;20036;-89
2022/04/14 02:42:32;;;;;;;6.85;4.22;;;11.30;76.30;;;;;;4915298;29;20055;-88
2022/04/14 02:44:58;;;;;;;8.05;4.30;;;11.30;76.50;;;;;;4898513;29;20085;-89
2022/04/14 02:47:23;;;;;;;11.60;3.92;;;11.30;76.80;;;;;;4909780;29;20030;-87
2022/04/14 02:49:49;;;;;;;8.30;4.72;;;11.20;76.90;;;;;;4915501;29;20118;-87
2022/04/14 02:52:15;;;;;;;5.68;4.50;;;11.20;77.10;;;;;;4919155;29;20024;-87
2022/04/14 02:54:41;;;;;;;7.38;4.82;;;11.20;77.30;;;;;;4911499;29;20027;-88
2022/04/14 02:57:07;;;;;;;6.00;4.10;;;11.20;77.30;;;;;;4899022;29;20138;-89
2022/04/14 02:59:34;;;;;;;6.50;4.10;;;11.10;77.50;;;;;;4927047;29;20028;-87
2022/04/14 03:02:00;;;;;;;5.72;4.00;;;11.10;77.90;;;;;;4910226;29;20142;-87
2022/04/14 03:04:26;;;;;;;5.72;4.13;;;11.00;78.30;;;;;;4918712;29;20034;-87
2022/04/14 03:06:52;;;;;;;6.82;3.80;;;11.10;78.50;;;;;;4893365;29;20040;-86
2022/04/14 03:09:17;;;;;;;6.10;3.83;;;11.00;78.60;;;;;;4903426;29;20035;-87
2022/04/14 03:11:43;;;;;;;6.22;4.18;;;11.00;78.80;;;;;;4912132;29;20020;-89
2022/04/14 03:14:09;;;;;;;8.45;3.88;;;10.90;79.00;;;;;;4896698;29;20048;-88
2022/04/14 03:16:34;;;;;;;6.10;4.28;;;10.90;79.30;;;;;;4898897;29;20024;-87
2022/04/14 03:19:00;;;;;;;4.55;3.80;;;10.90;79.50;;;;;;4924301;29;20083;-87
2022/04/14 03:21:25;;;;;;;4.78;3.90;;;10.90;79.60;;;;;;4904133;29;20032;-89
2022/04/14 03:23:51;;;;;;;8.23;3.90;;;10.90;79.70;;;;;;4886269;29;20040;-87
2022/04/14 03:26:16;;;;;;;4.68;3.65;;;10.80;79.80;;;;;;4882918;29;20058;-86
2022/04/14 03:28:42;;;;;;;7.32;4.20;;;10.80;80.10;;;;;;4899423;29;20473;-87
2022/04/14 03:31:08;;;;;;;6.53;3.92;;;10.80;80.50;;;;;;4909330;29;20536;-87
2022/04/14 03:33:33;;;;;;;6.82;4.32;;;10.80;80.80;;;;;;4907161;29;20079;-88
2022/04/14 03:35:59;;;;;;;7.80;4.63;;;10.80;80.90;;;;;;4900420;29;20035;-86
2022/04/14 03:38:25;;;;;;;5.65;4.03;;;10.70;81.10;;;;;;4902630;29;20442;-86
2022/04/14 03:40:50;;;;;;;6.60;4.38;;;10.70;81.50;;;;;;4925094;29;20055;-87
2022/04/14 03:43:16;;;;;;;7.05;4.25;;;10.70;81.80;;;;;;4927284;29;20032;-88
2022/04/14 03:45:42;;;;;;;7.45;4.10;;;10.70;82.50;;;;;;4898523;29;20172;-89
2022/04/14 03:48:08;;;;;;;7.00;4.30;;;10.70;82.80;;;;;;4892060;29;20149;-90
2022/04/14 03:50:34;;;;;;;12.73;5.97;;;10.70;82.40;;;;;;4893568;29;20063;-89
2022/04/14 03:53:00;;;;;;;11.73;5.95;;;10.60;82.40;;;;;;4902904;29;20087;-87
2022/04/14 03:55:25;;;;;;;14.55;6.55;;;10.60;82.40;;;;;;4890281;29;20607;-88
2022/04/14 03:57:51;;;;;;;11.80;6.07;;;10.60;82.90;;;;;;4893459;29;20450;-88
2022/04/14 04:00:17;;;;;;;11.27;6.10;;;10.50;83.50;;;;;;4903104;29;20038;-88
2022/04/14 04:02:43;;;;;;;10.60;6.40;;;10.50;84.20;;;;;;4905332;29;20055;-90
2022/04/14 04:05:09;;;;;;;8.70;5.35;;;10.50;84.60;;;;;;4893291;29;20036;-88
2022/04/14 04:07:34;;;;;;;11.77;4.88;;;10.50;84.80;;;;;;4906394;29;20608;-88
2022/04/14 04:10:00;;;;;;;9.68;4.95;;;10.50;85.00;;;;;;4898532;29;20115;-86
2022/04/14 04:12:26;;;;;;;9.57;5.55;;;10.50;85.20;;;;;;4898848;29;20091;-87
2022/04/14 04:14:51;;;;;;;8.32;4.93;;;10.40;85.40;;;;;;4900862;29;20099;-86
2022/04/14 04:17:17;;;;;;;6.75;4.70;;;10.40;85.50;;;;;;4897862;29;20508;-87
2022/04/14 04:19:43;;;;;;;9.93;5.25;;;10.40;85.80;;;;;;4913274;29;20484;-86
2022/04/14 04:22:10;;;;;;;15.27;6.60;;;10.40;86.00;;;;;;4898602;29;20055;-88
2022/04/14 04:24:36;;;;;;;14.32;6.78;;;10.40;86.10;;;;;;4914719;29;20062;-86
2022/04/14 04:27:02;;;;;;;12.80;6.07;;;10.40;86.10;;;;;;4907743;29;20495;-87
2022/04/14 04:29:27;;;;;;;8.57;5.60;;;10.30;86.30;;;;;;4919013;29;20059;-86
2022/04/14 04:31:53;;;;;;;15.85;6.70;;;10.30;86.70;;;;;;4899222;29;20028;-87
2022/04/14 04:34:19;;;;;;;10.02;5.82;;;10.30;86.90;;;;;;4903530;29;20601;-86
2022/04/14 04:36:44;;;;;;;10.18;5.70;;;10.30;87.20;;;;;;4914456;29;20050;-86
2022/04/14 04:39:10;;;;;;;12.32;5.38;;;10.30;87.40;;;;;;4903850;29;20060;-86
2022/04/14 04:41:36;;;;;;;9.32;5.18;;;10.20;87.60;;;;;;4900506;29;20059;-88
2022/04/14 04:44:04;;;;;;;8.02;5.28;;;10.20;87.90;;;;;;4918992;29;20033;-87
2022/04/14 04:46:30;;;;;;;11.88;4.90;;;10.20;88.20;;;;;;4886557;29;20032;-88
2022/04/14 04:48:55;;;;;;;9.05;5.38;;;10.20;88.40;;;;;;4898740;29;20036;-88
2022/04/14 04:51:21;;;;;;;6.90;4.68;;;10.20;88.90;;;;;;4889014;29;20059;-85
2022/04/14 04:53:46;;;;;;;11.60;5.03;;;10.10;89.10;;;;;;4889709;29;20538;-85
2022/04/14 04:56:13;;;;;;;8.68;4.45;;;10.10;89.40;;;;;;4912007;29;20024;-86
2022/04/14 04:58:38;;;;;;;12.63;5.30;;;10.20;89.70;;;;;;4900729;29;20028;-86
2022/04/14 05:01:04;;;;;;;8.57;4.85;;;10.20;90.00;;;;;;4902489;29;20029;-87
2022/04/14 05:03:30;;;;;;;11.23;5.30;;;10.20;90.00;;;;;;4919500;29;20030;-87
2022/04/14 05:05:55;;;;;;;9.32;5.22;;;10.20;89.90;;;;;;4903881;29;20035;-87
2022/04/14 05:08:21;;;;;;;8.48;5.65;;;10.30;90.00;;;;;;4928835;29;20024;-86
2022/04/14 05:10:46;;;;;;;7.95;5.30;;;10.20;90.10;;;;;;4894352;29;20039;-86
2022/04/14 05:13:14;;;;;;;9.38;5.50;;;10.30;90.40;;;;;;4889881;29;20076;-88
2022/04/14 05:15:40;;;;;;;10.10;4.95;;;10.30;90.70;;;;;;4897327;29;20032;-87
2022/04/14 05:18:06;;;;;;;8.35;5.40;;;10.30;90.70;;;;;;4918072;29;20508;-87
2022/04/14 05:20:31;;;;;;;11.77;5.80;;;10.40;90.80;;;;;;4902593;29;20032;-86
2022/04/14 05:22:57;;;;;;;11.15;5.90;;;10.40;90.80;;;;;;4895665;29;20033;-86
2022/04/14 05:25:23;;;;;;;9.30;5.40;;;10.40;90.70;;;;;;4904798;29;20708;-86
2022/04/14 05:27:48;;;;;;;6.40;5.25;;;10.50;90.80;;;;;;4913865;29;20040;-86
2022/04/14 05:30:14;;;;;;;8.50;5.65;;;10.60;90.90;;;;;;4916538;29;20086;-86
2022/04/14 05:32:40;;;;;;;8.23;5.05;;;10.60;90.90;;;;;;4901858;29;20064;-86
2022/04/14 05:35:10;;;;;;;7.15;4.97;;;10.60;90.90;;;;;;4927256;29;20047;-86
2022/04/14 05:37:36;;;;;;;11.27;5.72;;;10.70;91.00;;;;;;4907799;29;20051;-86
2022/04/14 05:40:06;;;;;;;9.60;5.22;;;10.70;91.10;;;;;;4900080;29;20047;-86
2022/04/14 05:42:32;;;;;;;7.95;6.00;;;10.70;91.40;;;;;;4893085;29;20111;-87
2022/04/14 05:44:58;;;;;;;13.35;6.97;;;10.70;91.60;;;;;;4906927;29;20110;-88
2022/04/14 05:47:24;;;;;;;11.25;7.10;;;10.60;91.90;;;;;;4906418;29;20069;-87
2022/04/14 05:49:53;;;;;;;10.77;6.85;;;10.70;92.10;;;;;;4902239;29;20032;-86
2022/04/14 05:52:20;;;;;;;10.50;7.28;;;10.70;92.20;;;;;;4901537;29;20107;-86
2022/04/14 05:54:46;;;;;;;12.82;7.68;;;10.70;92.20;;;;;;4902224;29;20115;-89
2022/04/14 05:57:13;;;;;;;10.18;7.20;;;10.60;92.30;;;;;;4931075;29;20044;-86
2022/04/14 05:59:39;;;;;;;11.88;6.72;;;10.60;92.60;;;;;;4902104;29;20032;-86
2022/04/14 06:02:05;;;;;;;12.10;6.85;;;10.60;92.60;;;;;;4906279;29;20035;-87
2022/04/14 06:04:31;;;;;;;11.25;6.65;;;10.70;92.90;;;;;;4923190;29;20185;-87
2022/04/14 06:06:56;;;;;;;8.13;5.88;;;10.70;93.00;;;;;;4923680;29;20032;-87
2022/04/14 06:09:22;;;;;;;15.95;9.55;;;10.80;93.20;;;;;;4918191;29;20016;-90
2022/04/14 06:11:48;;;;;;;16.77;6.97;;;10.90;93.20;;;;;;4943094;29;20021;-88
2022/04/14 06:14:13;;;;;;;8.32;6.18;;;10.90;93.30;;;;;;4922127;29;20088;-88
2022/04/14 06:16:39;;;;;;;10.63;6.50;;;11.00;93.30;;;;;;4927364;29;20024;-87
2022/04/14 06:19:05;;;;;;;10.43;6.60;;;11.00;93.10;;;;;;4935639;29;20051;-86
2022/04/14 06:21:31;;;;;;;10.05;6.85;;;11.00;93.00;;;;;;4913220;29;20036;-87
2022/04/14 06:23:57;;;;;;;11.30;6.40;;;10.90;93.10;;;;;;4901641;29;20051;-86
2022/04/14 06:26:23;;;;;;;12.57;6.38;;;10.90;93.30;;;;;;4918753;29;20144;-86
2022/04/14 06:28:48;;;;;;;11.98;7.68;;;10.80;93.50;;;;;;4900687;29;20131;-86
2022/04/14 06:31:14;;;;;;;10.50;7.80;;;10.90;93.70;;;;;;4902707;29;20031;-86
2022/04/14 06:33:40;;;;;;;10.50;7.20;;;10.90;93.60;;;;;;4918516;29;20122;-86
2022/04/14 06:36:06;;;;;;;9.98;6.45;;;11.00;93.80;;;;;;4907361;29;20039;-86
2022/04/14 06:38:32;;;;;;;9.43;6.13;;;11.10;93.70;;;;;;4905300;29;20413;-87
2022/04/14 06:40:58;;;;;;;8.75;5.88;;;11.20;93.70;;;;;;4898388;29;20035;-86
2022/04/14 06:43:24;;;;;;;7.22;5.82;;;11.40;93.80;;;;;;4891452;29;20029;-86
2022/04/14 06:45:51;;;;;;;8.05;5.82;;;11.50;93.90;;;;;;4916519;29;20114;-86
2022/04/14 06:48:17;;;;;;;8.30;5.90;;;11.60;94.20;;;;;;4931731;29;20580;-86
2022/04/14 06:50:43;;;;;;;9.13;5.32;;;11.70;94.10;;;;;;4915946;29;20088;-86
2022/04/14 06:53:09;;;;;;;9.48;5.78;;;11.90;94.10;;;;;;4909772;29;20441;-86
2022/04/14 06:55:37;;;;;;;9.18;5.60;;;12.00;94.10;;;;;;4893918;29;20039;-86
2022/04/14 06:58:03;;;;;;;9.20;5.47;;;12.20;94.00;;;;;;4897728;29;20493;-87
2022/04/14 07:00:30;;;;;;;8.45;5.78;;;12.40;94.20;;;;;;4903410;29;20042;-87
2022/04/14 07:02:57;;;;;;;8.13;5.50;;;12.70;94.10;;;;;;4895853;29;20024;-87
2022/04/14 07:05:23;;;;;;;8.73;5.70;;;13.00;93.70;;;;;;4900882;29;20031;-86
2022/04/14 07:07:50;;;;;;;8.32;5.95;;;13.20;93.40;;;;;;4912546;29;20067;-87
2022/04/14 07:10:16;;;;;;;98.57;64.30;;;13.50;93.30;;;;;;4904614;29;20020;-88
2022/04/14 07:12:43;;;;;;;11.98;8.77;;;13.70;93.30;;;;;;4939745;29;20381;-87
2022/04/14 07:15:09;;;;;;;6.93;5.47;;;14.00;93.10;;;;;;4913445;29;20400;-87
2022/04/14 07:17:36;;;;;;;12.70;5.78;;;14.30;92.70;;;;;;4896560;29;20028;-88
2022/04/14 07:20:03;;;;;;;8.60;5.30;;;14.50;92.20;;;;;;4891291;29;20039;-87
2022/04/14 07:22:30;;;;;;;11.10;5.40;;;14.80;92.20;;;;;;4898564;29;20056;-86
2022/04/14 07:24:55;;;;;;;8.57;5.13;;;15.20;91.60;;;;;;4899619;29;20092;-87
2022/04/14 07:27:21;;;;;;;6.97;4.82;;;15.50;91.40;;;;;;4900886;29;20024;-87
2022/04/14 07:29:47;;;;;;;8.30;5.38;;;15.90;91.30;;;;;;4921172;29;20039;-87
2022/04/14 07:32:14;;;;;;;10.57;5.22;;;16.30;90.70;;;;;;4912282;29;20031;-86
2022/04/14 07:34:40;;;;;;;8.07;4.78;;;16.60;90.40;;;;;;4893516;29;20024;-86
2022/04/14 07:37:05;;;;;;;7.90;4.32;;;17.10;89.70;;;;;;4905109;29;20170;-87
2022/04/14 07:39:31;;;;;;;7.53;4.72;;;17.50;88.50;;;;;;4921384;29;20032;-86
2022/04/14 07:41:57;;;;;;;13.25;5.10;;;17.70;86.80;;;;;;4906984;29;20032;-87
2022/04/14 07:44:23;;;;;;;8.63;4.47;;;17.90;86.30;;;;;;4901963;29;20041;-87
2022/04/14 07:46:48;;;;;;;9.57;4.65;;;18.20;86.20;;;;;;4921178;29;20028;-86
2022/04/14 07:49:14;;;;;;;32.28;19.55;;;18.50;85.70;;;;;;4933266;29;20075;-87
2022/04/14 07:51:42;;;;;;;8.60;4.40;;;18.90;85.00;;;;;;4912214;29;20034;-86
2022/04/14 07:54:08;;;;;;;8.93;4.75;;;19.40;84.00;;;;;;4919615;29;20024;-86
2022/04/14 07:56:33;;;;;;;10.40;4.30;;;19.70;83.00;;;;;;4905019;29;20052;-85
2022/04/14 07:59:00;;;;;;;11.48;4.15;;;20.10;81.50;;;;;;4900998;29;20039;-86
2022/04/14 08:01:26;;;;;;;6.88;4.43;;;20.40;80.10;;;;;;4904159;29;20047;-87
2022/04/14 08:03:52;;;;;;;12.18;5.50;;;20.70;79.00;;;;;;4917397;29;20040;-86
2022/04/14 08:06:17;;;;;;;11.00;5.40;;;20.90;77.80;;;;;;4943312;23;20044;-85
2022/04/14 08:08:43;;;;;;;15.88;6.00;;;21.20;76.50;;;;;;4907084;29;20024;-86
2022/04/14 08:11:10;;;;;;;6.70;4.20;;;21.30;74.90;;;;;;4902918;29;20122;-87
2022/04/14 08:13:38;;;;;;;10.13;4.82;;;21.50;75.00;;;;;;4922249;29;20473;-86
2022/04/14 08:16:09;;;;;;;8.00;4.72;;;21.80;74.50;;;;;;4898370;29;20557;-87
2022/04/14 08:18:39;;;;;;;10.20;5.03;;;22.00;72.60;;;;;;4897873;29;20024;-88
2022/04/14 08:21:05;;;;;;;50.17;33.25;;;22.30;71.80;;;;;;4897962;29;20092;-86
2022/04/14 08:23:32;;;;;;;9.93;5.13;;;22.60;71.70;;;;;;4906110;29;20090;-85
2022/04/14 08:25:59;;;;;;;8.77;4.95;;;23.10;70.90;;;;;;4904490;29;20500;-86
2022/04/14 08:28:25;;;;;;;10.95;4.78;;;23.40;69.50;;;;;;4901967;29;20040;-87
2022/04/14 08:30:54;;;;;;;10.32;4.78;;;23.60;67.50;;;;;;4906253;29;20032;-86
2022/04/14 08:33:20;;;;;;;9.65;4.65;;;23.70;66.80;;;;;;4922841;29;20020;-87
2022/04/14 08:35:46;;;;;;;14.02;4.93;;;24.00;66.20;;;;;;4921584;29;20024;-87
2022/04/14 08:38:12;;;;;;;11.77;5.05;;;24.20;65.30;;;;;;4905162;29;20055;-86
2022/04/14 08:40:40;;;;;;;12.05;4.85;;;24.60;64.90;;;;;;4890159;29;20028;-87
2022/04/14 08:43:07;;;;;;;10.15;4.80;;;25.00;64.00;;;;;;4907555;29;20053;-87
2022/04/14 08:45:36;;;;;;;11.38;4.70;;;25.40;63.10;;;;;;4903016;29;20052;-87
2022/04/14 08:48:03;;;;;;;13.02;5.60;;;25.70;61.60;;;;;;4904017;29;20032;-88
2022/04/14 08:50:31;;;;;;;10.32;4.57;;;25.90;60.40;;;;;;4906822;29;20028;-86
2022/04/14 08:52:57;;;;;;;7.72;4.85;;;25.80;58.80;;;;;;4907191;29;20059;-87
2022/04/14 08:55:24;;;;;;;10.23;5.22;;;25.70;58.70;;;;;;4905991;29;20039;-89
2022/04/14 08:57:50;;;;;;;7.72;5.10;;;25.80;58.90;;;;;;4906561;29;20021;-88
2022/04/14 09:00:16;;;;;;;8.80;4.85;;;26.20;58.20;;;;;;4925424;29;20036;-88
2022/04/14 09:02:45;;;;;;;8.48;4.40;;;26.20;57.20;;;;;;4925144;29;20028;-87
2022/04/14 09:05:12;;;;;;;8.65;4.80;;;26.40;57.40;;;;;;4925270;29;20071;-87
2022/04/14 09:07:38;;;;;;;6.57;4.80;;;26.80;57.00;;;;;;4904969;29;20643;-88
2022/04/14 09:10:08;;;;;;;10.05;4.85;;;27.10;55.50;;;;;;4889596;29;20053;-87
2022/04/14 09:12:37;;;;;;;12.18;4.85;;;27.10;54.50;;;;;;4901366;29;20029;-88
2022/04/14 09:15:03;;;;;;;7.45;4.70;;;27.40;54.20;;;;;;4907020;29;20028;-88
2022/04/14 09:17:29;;;;;;;8.43;4.90;;;28.00;54.10;;;;;;4907065;29;20028;-88
2022/04/14 09:19:54;;;;;;;9.55;5.00;;;28.50;53.10;;;;;;4887708;29;20076;-88
2022/04/14 09:22:23;;;;;;;8.68;4.55;;;29.10;51.90;;;;;;4887774;29;20040;-86
2022/04/14 09:24:54;;;;;;;11.35;5.63;;;29.80;50.90;;;;;;4887633;29;20040;-87
2022/04/14 09:27:28;;;;;;;9.85;4.72;;;30.20;49.00;;;;;;4930975;29;20044;-86
2022/04/14 09:29:56;;;;;;;6.90;4.80;;;30.30;48.30;;;;;;4901803;29;20028;-88
2022/04/14 09:32:42;;;;;;;10.18;5.15;;;30.60;48.10;;;;;;4901234;29;20021;-87
2022/04/14 09:35:23;;;;;;;10.07;4.63;;;31.10;47.80;;;;;;4922728;29;20031;-89
2022/04/14 09:38:08;;;;;;;8.13;4.95;;;31.60;47.10;;;;;;4905156;29;20035;-87
2022/04/14 09:40:34;;;;;;;9.75;5.32;;;32.10;46.80;;;;;;4907419;29;20036;-85
2022/04/14 09:43:00;;;;;;;11.00;5.25;;;32.50;46.20;;;;;;4907152;29;20449;-84
2022/04/14 09:45:30;;;;;;;8.52;5.10;;;32.90;45.70;;;;;;4906469;29;20035;-88
2022/04/14 09:48:10;;;;;;;7.85;5.38;;;33.10;45.10;;;;;;4908189;29;20032;-85
2022/04/14 09:50:40;;;;;;;9.30;5.13;;;33.00;44.40;;;;;;4926404;29;20032;-87
2022/04/14 09:53:10;;;;;;;8.82;5.57;;;32.60;43.70;;;;;;4909978;29;20095;-86
2022/04/14 09:55:40;;;;;;;6.50;5.47;;;32.30;44.20;;;;;;4909551;29;20035;-87
2022/04/14 09:58:20;;;;;;;10.43;5.55;;;32.20;43.70;;;;;;4910127;29;20138;-87
2022/04/14 10:00:52;;;;;;;11.05;5.97;;;31.70;44.20;;;;;;4906443;29;20047;-85
2022/04/14 10:03:25;;;;;;;9.00;5.35;;;31.50;44.70;;;;;;4905411;29;20059;-86
2022/04/14 10:05:59;;;;;;;8.52;5.28;;;31.50;44.90;;;;;;4904780;29;20532;-87
2022/04/14 10:08:25;;;;;;;7.55;4.50;;;31.70;44.80;;;;;;4907483;29;20032;-86
2022/04/14 10:11:04;;;;;;;10.25;5.40;;;31.80;44.00;;;;;;4907085;29;20052;-86
2022/04/14 10:13:35;;;;;;;7.40;4.88;;;31.90;43.60;;;;;;4907645;29;20029;-87
2022/04/14 10:16:02;;;;;;;13.25;5.78;;;32.40;44.00;;;;;;4907363;29;20036;-86
2022/04/14 10:18:28;;;;;;;12.07;4.70;;;32.90;42.90;;;;;;4907673;29;20099;-86
2022/04/14 10:20:54;;;;;;;9.55;5.30;;;33.20;42.50;;;;;;4906228;29;20071;-85
2022/04/14 10:23:22;;;;;;;9.02;5.80;;;33.20;42.20;;;;;;4902564;29;20032;-86
2022/04/14 10:25:50;;;;;;;11.20;5.18;;;33.40;42.20;;;;;;4894627;29;20037;-85
2022/04/14 10:28:17;;;;;;;6.15;4.57;;;33.30;42.20;;;;;;4904146;29;20028;-87
2022/04/14 10:30:56;;;;;;;9.82;5.55;;;32.90;42.60;;;;;;4911460;29;20023;-87
2022/04/14 10:33:23;;;;;;;17.50;5.80;;;32.50;42.70;;;;;;4903043;29;20181;-86
2022/04/14 10:35:52;;;;;;;8.13;5.13;;;32.20;42.70;;;;;;4915919;29;20035;-89
2022/04/14 10:38:31;;;;;;;12.02;7.90;;;32.20;42.90;;;;;;4899379;29;20024;-88
2022/04/14 10:41:05;;;;;;;8.73;5.80;;;32.40;43.10;;;;;;4905777;29;20067;-87
2022/04/14 10:43:34;;;;;;;12.10;5.80;;;32.50;43.20;;;;;;4896341;29;20036;-88
2022/04/14 10:46:01;;;;;;;8.85;5.70;;;32.20;42.80;;;;;;4918000;29;20031;-85
2022/04/14 10:48:31;;;;;;;12.20;5.85;;;31.60;43.20;;;;;;4927317;29;20024;-84
2022/04/14 10:51:27;;;;;;;7.97;5.78;;;31.30;44.00;;;;;;4923766;29;20215;-84
2022/04/14 10:53:59;;;;;;;6.72;4.95;;;31.10;44.50;;;;;;4903967;29;20043;-85
2022/04/14 10:56:33;;;;;;;8.05;5.28;;;30.80;44.80;;;;;;4918710;29;20024;-85
2022/04/14 10:59:14;;;;;;;8.98;4.68;;;30.60;45.30;;;;;;4909775;29;20028;-83
2022/04/14 11:01:46;;;;;;;8.75;5.18;;;30.40;45.50;;;;;;4911790;29;20024;-86
2022/04/14 11:04:30;;;;;;;11.23;4.93;;;30.10;45.70;;;;;;4911625;29;20028;-85
2022/04/14 11:07:16;;;;;;;7.30;4.82;;;29.80;46.20;;;;;;4925243;29;20677;-85
2022/04/14 11:09:50;;;;;;;10.07;4.80;;;29.60;46.60;;;;;;4906988;29;20392;-85
2022/04/14 11:12:19;;;;;;;11.02;4.72;;;29.40;46.40;;;;;;4928413;29;20056;-86
2022/04/14 11:14:54;;;;;;;7.88;4.93;;;29.30;46.70;;;;;;4930636;29;20087;-85
2022/04/14 11:17:37;;;;;;;8.00;4.45;;;29.20;46.90;;;;;;4931126;29;20253;-85
2022/04/14 11:20:16;;;;;;;8.70;5.20;;;29.00;47.10;;;;;;4930402;29;20040;-85
2022/04/14 11:23:01;;;;;;;7.40;5.53;;;29.00;47.30;;;;;;4930290;29;20032;-85
2022/04/14 11:25:47;;;;;;;7.30;5.00;;;28.90;47.10;;;;;;4929607;29;20033;-85
2022/04/14 11:28:26;;;;;;;9.77;5.05;;;28.80;47.40;;;;;;4930376;29;20024;-85
2022/04/14 11:30:59;;;;;;;16.20;5.90;;;28.70;47.60;;;;;;4929489;29;20024;-86
2022/04/14 11:33:30;;;;;;;10.00;5.53;;;28.70;47.80;;;;;;5095354;27;1256927;-84
2022/04/14 11:36:19;;;;;;;9.60;5.93;;;28.70;47.80;;;;;;5100785;28;20111;-84
2022/04/14 11:39:01;;;;;;;7.70;6.15;;;28.70;47.70;;;;;;5097592;28;20028;-84
2022/04/14 11:41:50;;;;;;;8.88;6.85;;;28.50;48.20;;;;;;5101469;28;20080;-85
2022/04/14 11:44:32;;;;;;;11.63;5.78;;;28.40;48.00;;;;;;5114996;28;20068;-84
2022/04/14 11:46:59;;;;;;;16.02;6.70;;;28.40;48.30;;;;;;5102880;28;20021;-85
2022/04/14 11:49:29;;;;;;;10.82;6.40;;;28.30;48.10;;;;;;5115655;28;20024;-85
2022/04/14 11:52:03;;;;;;;9.90;5.88;;;28.20;47.90;;;;;;5122721;28;20173;-87
2022/04/14 11:54:29;;;;;;;12.98;7.30;;;28.10;48.20;;;;;;5120527;28;20044;-87
2022/04/14 11:56:56;;;;;;;12.95;7.28;;;28.10;48.50;;;;;;5121565;28;20024;-85
2022/04/14 11:59:38;;;;;;;11.63;6.70;;;28.10;48.40;;;;;;5120927;28;20038;-86
2022/04/14 12:02:05;;;;;;;14.40;7.97;;;28.10;48.30;;;;;;5113286;28;20072;-85
2022/04/14 12:04:58;;;;;;;10.40;7.18;;;28.00;48.20;;;;;;5116000;28;20020;-85
2022/04/14 12:07:30;;;;;;;10.90;6.75;;;27.90;48.40;;;;;;5109510;28;20031;-86
2022/04/14 12:10:07;;;;;;;10.70;7.22;;;27.80;48.50;;;;;;5099208;28;20056;-85
2022/04/14 12:12:35;;;;;;;9.80;6.38;;;27.80;48.40;;;;;;5090878;28;20015;-85
2022/04/14 12:15:01;;;;;;;13.23;6.13;;;27.70;48.60;;;;;;5088990;28;20385;-85
2022/04/14 12:17:27;;;;;;;10.05;6.88;;;27.80;48.90;;;;;;5093091;28;20032;-84
2022/04/14 12:19:58;;;;;;;10.20;7.43;;;27.70;48.50;;;;;;5110148;28;20020;-84
2022/04/14 12:22:26;;;;;;;11.97;7.07;;;27.60;48.60;;;;;;5113002;28;20019;-85
2022/04/14 12:24:57;;;;;;;14.57;7.97;;;27.60;48.90;;;;;;5100973;28;20024;-84
2022/04/14 12:27:37;;;;;;;11.85;7.57;;;27.60;48.80;;;;;;5095175;28;20076;-85
2022/04/14 12:30:09;;;;;;;11.82;7.03;;;27.60;48.60;;;;;;5095430;28;20021;-85
2022/04/14 12:32:36;;;;;;;14.15;7.47;;;27.60;49.10;;;;;;5094994;28;20186;-85
2022/04/14 12:35:06;;;;;;;14.07;8.07;;;27.60;48.80;;;;;;5094907;28;20055;-84
2022/04/14 12:37:40;;;;;;;10.30;7.00;;;27.60;48.60;;;;;;5118850;28;20039;-85
2022/04/14 12:40:16;;;;;;;11.48;6.63;;;27.60;49.00;;;;;;5116929;28;20016;-85
2022/04/14 12:42:43;;;;;;;11.68;7.57;;;27.70;49.00;;;;;;5115614;28;20316;-85
2022/04/14 12:45:09;;;;;;;11.73;6.43;;;27.80;48.60;;;;;;5103016;28;20400;-85
2022/04/14 12:47:36;;;;;;;11.52;6.90;;;27.80;48.40;;;;;;5104546;28;20024;-85